Time;durP1;ratioP1;P1;durP2;ratioP2;P2;SDS_P1;SDS_P2;PMS_P1;PMS_P2;Temp;Humidity;BMP_temperature;BMP_pressure;BME280_temperature;BME280_humidity;BME280_pressure;Samples;Min_cycle;Max_cycle;Signal;HPM_P1;HPM_P2
2022/04/24 00:00:35;;;;;;;8.27;5.20;;;14.50;14.30;;;;;;4972978;28;20396;-76
2022/04/24 00:03:02;;;;;;;6.25;5.25;;;14.50;14.70;;;;;;4973366;28;21158;-75
2022/04/24 00:05:27;;;;;;;6.38;5.53;;;14.50;14.90;;;;;;4987481;28;20394;-75
2022/04/24 00:07:53;;;;;;;8.30;5.40;;;14.50;14.60;;;;;;4989287;28;20402;-76
2022/04/24 00:10:18;;;;;;;9.00;5.47;;;14.40;15.10;;;;;;4982398;28;20419;-76
2022/04/24 00:12:44;;;;;;;6.63;5.75;;;14.30;15.70;;;;;;4975002;28;20410;-75
2022/04/24 00:15:10;;;;;;;7.70;6.00;;;14.30;15.30;;;;;;4974810;28;20823;-75
2022/04/24 00:17:37;;;;;;;7.60;5.57;;;14.30;16.20;;;;;;4981486;28;20441;-75
2022/04/24 00:20:03;;;;;;;6.07;5.30;;;14.30;16.00;;;;;;4988746;28;20774;-75
2022/04/24 00:22:29;;;;;;;7.53;5.85;;;14.20;15.40;;;;;;4969987;28;20412;-75
2022/04/24 00:24:55;;;;;;;9.63;5.40;;;14.20;16.30;;;;;;4982130;28;20419;-75
2022/04/24 00:27:20;;;;;;;6.72;5.40;;;14.10;16.80;;;;;;4977909;28;20404;-75
2022/04/24 00:29:46;;;;;;;10.50;6.10;;;14.00;16.70;;;;;;4985514;28;20425;-74
2022/04/24 00:32:12;;;;;;;7.07;5.60;;;14.00;17.00;;;;;;4985191;28;20412;-76
2022/04/24 00:34:37;;;;;;;6.22;5.55;;;14.00;17.10;;;;;;4976451;28;20410;-75
2022/04/24 00:37:04;;;;;;;10.88;5.97;;;13.90;17.10;;;;;;4983109;28;20392;-75
2022/04/24 00:39:29;;;;;;;7.30;6.00;;;13.80;17.80;;;;;;4996344;28;20402;-75
2022/04/24 00:41:55;;;;;;;5.90;5.30;;;13.70;17.20;;;;;;4990787;28;20448;-75
2022/04/24 00:44:21;;;;;;;8.90;6.53;;;13.60;18.20;;;;;;4993323;28;20473;-75
2022/04/24 00:46:55;;;;;;;8.32;6.18;;;13.50;18.10;;;;;;4990809;28;20411;-75
2022/04/24 00:49:21;;;;;;;8.45;6.10;;;13.40;18.90;;;;;;4990828;28;20418;-75
2022/04/24 00:51:47;;;;;;;8.52;5.65;;;13.30;18.30;;;;;;4987075;28;20414;-75
2022/04/24 00:54:13;;;;;;;9.18;6.50;;;13.30;19.00;;;;;;4990187;28;20503;-74
2022/04/24 00:56:39;;;;;;;8.63;6.30;;;13.20;18.50;;;;;;4984920;28;20406;-74
2022/04/24 00:59:07;;;;;;;8.00;6.32;;;13.10;18.80;;;;;;4983270;28;20912;-75
2022/04/24 01:01:34;;;;;;;7.10;6.40;;;13.00;19.60;;;;;;4977574;28;20402;-75
2022/04/24 01:04:02;;;;;;;8.88;6.70;;;12.90;19.40;;;;;;4979664;28;20418;-75
2022/04/24 01:06:31;;;;;;;8.60;6.40;;;12.70;19.90;;;;;;4979806;28;20952;-75
2022/04/24 01:09:17;;;;;;;10.70;6.35;;;12.60;21.30;;;;;;4980156;28;20418;-74
2022/04/24 01:11:47;;;;;;;7.90;6.50;;;12.60;22.60;;;;;;4988388;28;20443;-74
2022/04/24 01:14:16;;;;;;;8.18;6.35;;;12.50;21.00;;;;;;4979940;28;20972;-74
2022/04/24 01:16:42;;;;;;;11.30;7.20;;;12.40;20.80;;;;;;4979585;28;20402;-73
2022/04/24 01:19:08;;;;;;;12.40;7.10;;;12.30;21.90;;;;;;4987088;28;20545;-73
2022/04/24 01:21:35;;;;;;;8.10;6.60;;;12.20;21.60;;;;;;4980703;28;20403;-73
2022/04/24 01:24:04;;;;;;;8.50;7.10;;;12.20;22.30;;;;;;4973615;28;20427;-74
2022/04/24 01:26:30;;;;;;;8.88;6.63;;;12.10;22.20;;;;;;4986965;28;20414;-73
2022/04/24 01:28:55;;;;;;;7.87;6.93;;;11.90;23.40;;;;;;4992575;28;20414;-75
2022/04/24 01:31:21;;;;;;;8.60;7.40;;;11.90;22.80;;;;;;4976496;28;20401;-73
2022/04/24 01:33:46;;;;;;;8.68;7.07;;;11.90;23.00;;;;;;4967001;28;20926;-73
2022/04/24 01:36:12;;;;;;;9.10;7.40;;;11.80;23.20;;;;;;4976912;28;20917;-73
2022/04/24 01:38:39;;;;;;;9.95;7.10;;;11.80;23.60;;;;;;4985745;28;20391;-74
2022/04/24 01:41:05;;;;;;;9.65;7.50;;;11.80;23.20;;;;;;4987096;28;20410;-74
2022/04/24 01:43:30;;;;;;;7.73;6.93;;;11.70;24.30;;;;;;4980887;28;20895;-74
2022/04/24 01:46:14;;;;;;;8.60;7.27;;;11.70;24.60;;;;;;4985737;28;20402;-74
2022/04/24 01:48:40;;;;;;;11.57;7.60;;;11.60;23.70;;;;;;4974190;28;20459;-74
2022/04/24 01:51:07;;;;;;;8.40;7.00;;;11.60;24.30;;;;;;4974595;28;20435;-74
2022/04/24 01:53:34;;;;;;;10.23;7.60;;;11.60;24.20;;;;;;4983430;28;20516;-74
2022/04/24 01:56:02;;;;;;;9.27;7.97;;;11.50;24.00;;;;;;4980900;28;20741;-74
2022/04/24 01:58:28;;;;;;;9.65;7.70;;;11.50;25.50;;;;;;4981854;28;20448;-74
2022/04/24 02:00:54;;;;;;;10.85;8.30;;;11.40;25.70;;;;;;4985679;28;20422;-74
2022/04/24 02:03:21;;;;;;;10.33;7.20;;;11.40;26.40;;;;;;4985129;28;20803;-74
2022/04/24 02:05:46;;;;;;;9.32;7.10;;;11.40;26.90;;;;;;4988727;28;20414;-74
2022/04/24 02:08:12;;;;;;;10.75;8.10;;;11.40;25.70;;;;;;4974166;28;20455;-74
2022/04/24 02:10:38;;;;;;;10.25;7.90;;;11.40;25.60;;;;;;4976440;28;20457;-74
2022/04/24 02:13:04;;;;;;;10.90;8.10;;;11.30;26.10;;;;;;4980573;28;20762;-74
2022/04/24 02:15:30;;;;;;;10.05;7.75;;;11.30;27.00;;;;;;4990286;28;20392;-74
2022/04/24 02:17:56;;;;;;;8.93;7.75;;;11.30;26.60;;;;;;4992478;28;20398;-74
2022/04/24 02:20:22;;;;;;;9.50;7.80;;;11.30;27.40;;;;;;4985888;28;20419;-76
2022/04/24 02:22:48;;;;;;;9.90;8.10;;;11.30;26.60;;;;;;4988187;28;20407;-74
2022/04/24 02:25:15;;;;;;;10.07;7.20;;;11.20;26.20;;;;;;4990306;28;20398;-76
2022/04/24 02:27:40;;;;;;;19.08;8.60;;;11.20;26.00;;;;;;4992022;28;20403;-74
2022/04/24 02:30:07;;;;;;;11.80;8.10;;;11.10;26.60;;;;;;4986534;28;20792;-73
2022/04/24 02:32:33;;;;;;;11.20;8.40;;;11.10;26.80;;;;;;4977831;28;20768;-74
2022/04/24 02:34:58;;;;;;;11.60;8.70;;;11.10;27.20;;;;;;4975081;28;20406;-74
2022/04/24 02:37:25;;;;;;;10.67;8.17;;;11.10;26.70;;;;;;4989219;28;20421;-74
2022/04/24 02:39:51;;;;;;;10.63;8.30;;;11.20;25.90;;;;;;4978064;28;20422;-73
2022/04/24 02:42:17;;;;;;;10.00;8.18;;;11.20;25.00;;;;;;4986080;28;20406;-73
2022/04/24 02:44:43;;;;;;;12.90;8.30;;;11.10;26.50;;;;;;4990605;28;20759;-73
2022/04/24 02:47:08;;;;;;;9.93;8.30;;;11.10;26.50;;;;;;4989412;28;20406;-73
2022/04/24 02:49:34;;;;;;;11.37;8.60;;;11.10;26.60;;;;;;4984475;28;20414;-73
2022/04/24 02:51:59;;;;;;;10.53;8.83;;;11.10;25.90;;;;;;4979977;28;20410;-73
2022/04/24 02:54:25;;;;;;;11.37;8.10;;;11.10;25.90;;;;;;4988294;28;20734;-74
2022/04/24 02:56:50;;;;;;;10.32;8.70;;;11.10;26.50;;;;;;4979550;28;20897;-73
2022/04/24 02:59:16;;;;;;;11.05;8.95;;;11.00;25.50;;;;;;4971407;28;20469;-73
2022/04/24 03:01:44;;;;;;;9.83;8.50;;;11.00;26.30;;;;;;4978594;28;20402;-72
2022/04/24 03:04:10;;;;;;;12.00;8.75;;;11.00;26.00;;;;;;4990018;28;20405;-72
2022/04/24 03:06:36;;;;;;;9.35;8.35;;;11.00;26.30;;;;;;5005419;28;20402;-73
2022/04/24 03:09:01;;;;;;;9.88;8.65;;;10.90;27.00;;;;;;4982946;28;20913;-72
2022/04/24 03:11:27;;;;;;;9.82;8.73;;;10.90;26.10;;;;;;4981344;28;20404;-74
2022/04/24 03:13:52;;;;;;;11.15;9.10;;;10.90;26.70;;;;;;4991044;28;20901;-74
2022/04/24 03:16:18;;;;;;;11.63;8.90;;;10.90;26.30;;;;;;4989126;28;20763;-72
2022/04/24 03:18:43;;;;;;;13.80;9.07;;;10.90;27.10;;;;;;4988255;28;20409;-73
2022/04/24 03:21:09;;;;;;;10.80;9.07;;;10.80;27.00;;;;;;4982569;28;20415;-73
2022/04/24 03:23:34;;;;;;;13.40;9.30;;;10.80;28.60;;;;;;4984218;28;20415;-74
2022/04/24 03:26:01;;;;;;;11.53;8.33;;;10.80;27.10;;;;;;4992180;28;20407;-74
2022/04/24 03:28:26;;;;;;;10.65;8.50;;;10.80;26.60;;;;;;4988557;28;20416;-73
2022/04/24 03:30:52;;;;;;;12.50;8.90;;;10.70;26.20;;;;;;4985852;28;20411;-73
2022/04/24 03:33:17;;;;;;;11.07;9.07;;;10.70;26.70;;;;;;4985133;28;20862;-74
2022/04/24 03:35:43;;;;;;;10.63;9.15;;;10.60;27.50;;;;;;4995228;28;20395;-74
2022/04/24 03:38:08;;;;;;;14.20;8.88;;;10.60;27.50;;;;;;4992694;28;20426;-74
2022/04/24 03:40:34;;;;;;;13.05;9.13;;;10.60;27.00;;;;;;4985051;28;20420;-74
2022/04/24 03:42:59;;;;;;;12.40;9.63;;;10.60;27.60;;;;;;4983226;28;20408;-74
2022/04/24 03:45:25;;;;;;;13.55;9.45;;;10.50;28.30;;;;;;4978724;28;20402;-74
2022/04/24 03:47:51;;;;;;;10.80;8.82;;;10.50;28.80;;;;;;4987285;28;20466;-74
2022/04/24 03:50:21;;;;;;;10.98;8.65;;;10.50;27.90;;;;;;4980150;28;20507;-74
2022/04/24 03:52:47;;;;;;;10.50;8.63;;;10.50;29.50;;;;;;4988575;28;20753;-74
2022/04/24 03:55:12;;;;;;;11.60;9.15;;;10.50;29.00;;;;;;4989085;28;20410;-74
2022/04/24 03:57:38;;;;;;;13.32;9.30;;;10.40;29.60;;;;;;4991031;28;20834;-74
2022/04/24 04:00:05;;;;;;;12.18;9.43;;;10.40;29.90;;;;;;4981036;28;20414;-74
2022/04/24 04:02:31;;;;;;;12.77;9.77;;;10.30;30.10;;;;;;4982665;28;20528;-74
2022/04/24 04:04:57;;;;;;;12.05;9.40;;;10.40;28.80;;;;;;4988485;28;20402;-73
2022/04/24 04:07:22;;;;;;;11.35;9.63;;;10.40;28.60;;;;;;4982480;28;20400;-72
2022/04/24 04:09:48;;;;;;;13.60;9.85;;;10.40;29.30;;;;;;4982251;28;20455;-73
2022/04/24 04:12:14;;;;;;;12.68;10.10;;;10.30;31.30;;;;;;4991750;28;20403;-73
2022/04/24 04:14:39;;;;;;;14.30;10.30;;;10.20;29.80;;;;;;4974395;28;20400;-73
2022/04/24 04:17:05;;;;;;;14.05;9.77;;;10.30;29.40;;;;;;4975287;28;20506;-74
2022/04/24 04:19:31;;;;;;;11.57;9.23;;;10.20;30.20;;;;;;4982328;28;20907;-73
2022/04/24 04:21:56;;;;;;;12.68;10.23;;;10.20;29.40;;;;;;4973482;28;20410;-73
2022/04/24 04:24:22;;;;;;;13.90;10.17;;;10.10;29.90;;;;;;4983252;28;20948;-73
2022/04/24 04:26:48;;;;;;;14.60;9.73;;;10.20;29.60;;;;;;4984778;28;20804;-74
2022/04/24 04:29:13;;;;;;;12.80;10.07;;;10.10;29.80;;;;;;4980864;28;20908;-72
2022/04/24 04:31:39;;;;;;;12.70;9.90;;;10.10;30.20;;;;;;4983417;28;20759;-72
2022/04/24 04:34:04;;;;;;;12.75;10.55;;;10.00;31.00;;;;;;4981033;28;20860;-72
2022/04/24 04:36:30;;;;;;;14.63;10.60;;;10.00;31.60;;;;;;4987104;28;20400;-72
2022/04/24 04:38:56;;;;;;;13.85;10.43;;;10.00;31.60;;;;;;4982335;28;20495;-72
2022/04/24 04:41:21;;;;;;;15.13;11.25;;;10.00;30.60;;;;;;4981305;28;20446;-72
2022/04/24 04:43:47;;;;;;;16.77;10.82;;;10.00;31.40;;;;;;4989041;28;20402;-72
2022/04/24 04:46:12;;;;;;;15.43;10.70;;;10.00;31.30;;;;;;4982864;28;20406;-72
2022/04/24 04:48:38;;;;;;;14.70;11.30;;;10.00;31.40;;;;;;4978749;28;20414;-72
2022/04/24 04:51:03;;;;;;;13.93;10.95;;;10.00;31.50;;;;;;4976961;28;20401;-74
2022/04/24 04:53:29;;;;;;;15.00;11.80;;;10.10;31.90;;;;;;4972003;28;20412;-74
2022/04/24 04:55:55;;;;;;;14.82;11.68;;;10.10;31.40;;;;;;4976652;28;20414;-74
2022/04/24 04:58:20;;;;;;;14.82;11.57;;;10.20;31.80;;;;;;4977746;28;20394;-74
2022/04/24 05:00:46;;;;;;;15.10;11.00;;;10.20;31.50;;;;;;4966500;28;20489;-73
2022/04/24 05:03:11;;;;;;;15.77;11.80;;;10.30;30.90;;;;;;4973043;28;20417;-73
2022/04/24 05:05:37;;;;;;;15.73;11.10;;;10.30;30.30;;;;;;4974262;28;20413;-74
2022/04/24 05:08:03;;;;;;;16.77;12.73;;;10.40;31.00;;;;;;4973126;28;20404;-74
2022/04/24 05:10:28;;;;;;;16.40;11.80;;;10.30;31.30;;;;;;4980276;28;20418;-74
2022/04/24 05:12:54;;;;;;;15.97;11.60;;;10.40;32.00;;;;;;4979481;28;20500;-74
2022/04/24 05:15:21;;;;;;;18.43;11.30;;;10.50;30.70;;;;;;4979012;28;20482;-74
2022/04/24 05:17:47;;;;;;;15.10;11.35;;;10.50;29.50;;;;;;4967270;28;20459;-74
2022/04/24 05:20:13;;;;;;;16.17;11.57;;;10.50;29.50;;;;;;4983266;28;20909;-75
2022/04/24 05:22:40;;;;;;;16.13;12.10;;;10.60;29.60;;;;;;4977405;28;20433;-74
2022/04/24 05:25:09;;;;;;;18.38;11.55;;;10.70;30.00;;;;;;4971663;28;20410;-74
2022/04/24 05:27:36;;;;;;;17.98;10.95;;;10.80;29.50;;;;;;4983320;28;20723;-74
2022/04/24 05:30:05;;;;;;;16.83;12.10;;;10.90;28.90;;;;;;4987892;28;20445;-74
2022/04/24 05:32:41;;;;;;;16.10;11.30;;;11.00;28.70;;;;;;4982414;28;20404;-74
2022/04/24 05:35:07;;;;;;;16.02;12.00;;;11.10;29.00;;;;;;4971800;28;20399;-74
2022/04/24 05:37:33;;;;;;;15.57;11.98;;;11.20;28.60;;;;;;4983923;28;20414;-74
2022/04/24 05:39:59;;;;;;;14.87;11.60;;;11.30;28.20;;;;;;4976495;28;20402;-74
2022/04/24 05:42:24;;;;;;;15.80;12.20;;;11.40;27.70;;;;;;4969701;28;20408;-74
2022/04/24 05:44:50;;;;;;;20.50;11.83;;;11.40;27.10;;;;;;4971873;28;20400;-74
2022/04/24 05:47:15;;;;;;;14.17;11.10;;;11.30;26.90;;;;;;4973519;28;20451;-74
2022/04/24 05:49:41;;;;;;;14.43;11.50;;;11.20;27.50;;;;;;4977405;28;20426;-74
2022/04/24 05:52:07;;;;;;;18.45;11.98;;;11.20;27.40;;;;;;4995703;28;20398;-74
2022/04/24 05:54:32;;;;;;;19.10;12.50;;;11.20;27.60;;;;;;4986806;28;20396;-73
2022/04/24 05:56:58;;;;;;;14.50;11.23;;;11.20;28.60;;;;;;4984143;28;20404;-74
2022/04/24 05:59:23;;;;;;;14.48;10.82;;;11.30;27.40;;;;;;4977288;28;20424;-73
2022/04/24 06:01:49;;;;;;;16.23;12.10;;;11.30;27.00;;;;;;4981070;28;20398;-73
2022/04/24 06:04:15;;;;;;;16.00;12.30;;;11.30;27.80;;;;;;4995548;28;20505;-74
2022/04/24 06:06:40;;;;;;;14.82;11.80;;;11.30;28.00;;;;;;4990279;28;20974;-74
2022/04/24 06:09:06;;;;;;;15.97;12.07;;;11.30;27.60;;;;;;4981391;28;20414;-74
2022/04/24 06:11:32;;;;;;;16.35;12.32;;;11.30;27.90;;;;;;4985784;28;20412;-73
2022/04/24 06:13:57;;;;;;;16.95;11.70;;;11.30;27.90;;;;;;4978597;28;20945;-74
2022/04/24 06:16:23;;;;;;;14.82;11.80;;;11.30;27.60;;;;;;4988170;28;20425;-74
2022/04/24 06:18:49;;;;;;;15.10;11.50;;;11.30;27.60;;;;;;4986516;28;20406;-74
2022/04/24 06:21:14;;;;;;;17.65;11.70;;;11.40;27.80;;;;;;4972437;28;20418;-74
2022/04/24 06:23:40;;;;;;;15.88;12.05;;;11.40;26.90;;;;;;4976742;28;20968;-74
2022/04/24 06:26:05;;;;;;;16.05;11.43;;;11.50;27.40;;;;;;4979403;28;20779;-74
2022/04/24 06:28:31;;;;;;;14.00;11.18;;;11.60;26.80;;;;;;4984971;28;20406;-73
2022/04/24 06:30:56;;;;;;;16.73;12.30;;;11.70;26.30;;;;;;4991316;28;20417;-75
2022/04/24 06:33:22;;;;;;;16.40;12.20;;;11.70;26.30;;;;;;4979425;28;20816;-74
2022/04/24 06:35:48;;;;;;;15.00;11.90;;;11.80;26.70;;;;;;4983062;28;20693;-74
2022/04/24 06:38:13;;;;;;;16.33;10.87;;;11.80;25.80;;;;;;4971521;28;20410;-75
2022/04/24 06:40:39;;;;;;;18.13;12.27;;;11.80;25.60;;;;;;4976525;28;20402;-75
2022/04/24 06:43:07;;;;;;;17.58;11.77;;;11.80;25.70;;;;;;4975231;28;20411;-74
2022/04/24 06:45:38;;;;;;;16.25;10.70;;;11.80;26.00;;;;;;4977643;28;20415;-74
2022/04/24 06:48:09;;;;;;;16.33;12.30;;;11.90;25.50;;;;;;4981335;28;20432;-74
2022/04/24 06:50:37;;;;;;;15.63;12.02;;;11.90;26.10;;;;;;4988559;28;20532;-74
2022/04/24 06:53:09;;;;;;;19.60;11.60;;;11.90;25.50;;;;;;4990313;28;20509;-74
2022/04/24 06:55:36;;;;;;;19.08;12.45;;;12.00;25.00;;;;;;4987326;28;20708;-74
2022/04/24 06:58:03;;;;;;;16.50;11.35;;;12.00;24.90;;;;;;4977676;28;20973;-74
2022/04/24 07:00:30;;;;;;;15.95;12.18;;;12.00;25.20;;;;;;4973197;28;20423;-77
2022/04/24 07:02:56;;;;;;;15.80;11.30;;;12.10;24.70;;;;;;4969892;28;20420;-74
2022/04/24 07:05:26;;;;;;;18.23;11.63;;;12.10;25.20;;;;;;4976370;28;20407;-74
2022/04/24 07:07:51;;;;;;;17.90;11.55;;;12.20;24.90;;;;;;4971861;28;20414;-74
2022/04/24 07:10:17;;;;;;;15.77;11.65;;;12.30;24.30;;;;;;4968340;28;20927;-73
2022/04/24 07:12:46;;;;;;;12.55;10.82;;;12.20;23.80;;;;;;4969513;28;20410;-73
2022/04/24 07:15:13;;;;;;;16.25;11.50;;;12.20;23.90;;;;;;4975998;28;20419;-74
2022/04/24 07:17:40;;;;;;;14.68;11.30;;;12.20;23.50;;;;;;4973031;28;20403;-74
2022/04/24 07:20:06;;;;;;;14.40;10.75;;;12.30;23.80;;;;;;4971504;28;20724;-74
2022/04/24 07:22:47;;;;;;;16.92;10.95;;;12.40;23.50;;;;;;4977367;28;20404;-75
2022/04/24 07:25:21;;;;;;;15.18;10.63;;;12.50;23.60;;;;;;4975217;28;20427;-74
2022/04/24 07:27:47;;;;;;;16.35;11.77;;;12.60;22.80;;;;;;4976407;28;20491;-74
2022/04/24 07:30:14;;;;;;;14.38;11.57;;;12.70;22.30;;;;;;4976226;28;20415;-74
2022/04/24 07:32:45;;;;;;;15.88;11.45;;;12.70;23.00;;;;;;4974393;28;20823;-74
2022/04/24 07:35:16;;;;;;;14.95;11.90;;;12.80;23.90;;;;;;4971237;28;20407;-74
2022/04/24 07:37:42;;;;;;;14.88;11.32;;;12.90;22.30;;;;;;4974435;28;20457;-72
2022/04/24 07:40:11;;;;;;;19.40;11.05;;;13.10;21.70;;;;;;4964189;28;20890;-73
2022/04/24 07:42:46;;;;;;;14.88;11.98;;;13.10;21.00;;;;;;4966795;28;20813;-74
2022/04/24 07:45:18;;;;;;;14.45;11.30;;;13.10;21.40;;;;;;4971631;28;20477;-73
2022/04/24 07:47:45;;;;;;;16.35;12.35;;;13.20;20.60;;;;;;4978486;28;20407;-73
2022/04/24 07:50:11;;;;;;;17.45;11.73;;;13.20;21.00;;;;;;4977125;28;20456;-73
2022/04/24 07:52:37;;;;;;;14.98;11.07;;;13.20;20.90;;;;;;4976113;28;20450;-73
2022/04/24 07:55:03;;;;;;;15.45;10.70;;;13.40;20.80;;;;;;4974622;28;20899;-72
2022/04/24 07:57:28;;;;;;;14.77;10.60;;;13.50;20.50;;;;;;4977353;28;20400;-72
2022/04/24 07:59:54;;;;;;;14.35;10.77;;;13.50;19.80;;;;;;4978965;28;20508;-73
2022/04/24 08:02:20;;;;;;;17.25;11.90;;;13.60;20.10;;;;;;4969858;28;20431;-73
2022/04/24 08:04:45;;;;;;;15.95;11.68;;;13.70;20.00;;;;;;4972081;28;20408;-73
2022/04/24 08:07:11;;;;;;;16.42;11.20;;;13.80;19.40;;;;;;4970930;28;20423;-73
2022/04/24 08:09:37;;;;;;;13.93;11.55;;;13.80;19.80;;;;;;4973717;28;20423;-73
2022/04/24 08:12:03;;;;;;;16.67;11.55;;;14.00;20.30;;;;;;4966823;28;20420;-73
2022/04/24 08:14:29;;;;;;;15.77;11.32;;;14.00;19.70;;;;;;4970326;28;20431;-73
2022/04/24 08:16:55;;;;;;;15.82;11.30;;;14.10;19.60;;;;;;4977736;28;20479;-77
2022/04/24 08:19:21;;;;;;;15.73;11.27;;;14.20;18.50;;;;;;4968058;28;20953;-73
2022/04/24 08:21:46;;;;;;;17.30;11.20;;;14.10;18.90;;;;;;4968428;28;20422;-73
2022/04/24 08:24:12;;;;;;;17.45;11.57;;;14.10;18.40;;;;;;4970142;28;20415;-74
2022/04/24 08:26:37;;;;;;;17.10;11.75;;;14.10;18.90;;;;;;4969165;28;20781;-73
2022/04/24 08:29:03;;;;;;;17.08;10.90;;;14.20;19.00;;;;;;4969722;28;20869;-74
2022/04/24 08:31:28;;;;;;;17.27;11.03;;;14.20;18.30;;;;;;4965982;28;20940;-75
2022/04/24 08:33:57;;;;;;;17.87;10.97;;;14.30;19.30;;;;;;4967333;28;20415;-74
2022/04/24 08:36:23;;;;;;;15.02;10.90;;;14.50;19.00;;;;;;4967872;28;20779;-77
2022/04/24 08:38:49;;;;;;;15.38;11.02;;;14.50;17.90;;;;;;4970396;28;20404;-74
2022/04/24 08:41:20;;;;;;;14.73;11.48;;;14.60;17.80;;;;;;4969549;28;20493;-74
2022/04/24 08:43:45;;;;;;;18.57;12.00;;;14.70;18.10;;;;;;4975288;28;20844;-74
2022/04/24 08:46:11;;;;;;;15.97;10.50;;;14.80;18.30;;;;;;4976439;28;20423;-73
2022/04/24 08:48:38;;;;;;;16.53;10.63;;;14.70;17.10;;;;;;4976652;28;20959;-73
2022/04/24 08:51:05;;;;;;;14.00;11.20;;;14.60;17.60;;;;;;4971666;28;20481;-74
2022/04/24 08:53:33;;;;;;;14.88;11.10;;;14.60;18.00;;;;;;4973273;28;20402;-74
2022/04/24 08:55:59;;;;;;;15.18;11.57;;;14.80;17.60;;;;;;4975805;28;20784;-73
2022/04/24 08:58:24;;;;;;;16.13;11.50;;;14.70;17.50;;;;;;4968971;28;20459;-71
2022/04/24 09:00:50;;;;;;;15.90;11.47;;;14.80;17.50;;;;;;4965930;28;20422;-73
2022/04/24 09:03:16;;;;;;;17.93;11.23;;;14.90;17.20;;;;;;4970583;28;20408;-73
2022/04/24 09:05:41;;;;;;;17.70;11.93;;;14.80;17.10;;;;;;4967492;28;20928;-73
2022/04/24 09:08:09;;;;;;;17.70;11.32;;;14.90;17.40;;;;;;4971692;28;20404;-73
2022/04/24 09:10:55;;;;;;;13.57;10.90;;;15.00;16.80;;;;;;4971105;28;20467;-73
2022/04/24 09:14:14;;;;;;;15.80;12.00;;;15.10;17.60;;;;;;4971140;28;20448;-72
2022/04/24 09:16:18;;;;;;;16.38;12.82;;;15.30;17.60;;;;;;4964945;28;20609;-73
2022/04/24 09:18:46;;;;;;;15.55;11.48;;;15.40;16.40;;;;;;4968825;28;20503;-73
2022/04/24 09:21:13;;;;;;;17.83;11.82;;;15.60;15.90;;;;;;4968168;28;20925;-74
2022/04/24 09:23:43;;;;;;;14.50;11.40;;;15.70;15.80;;;;;;4971879;28;20494;-74
2022/04/24 09:26:18;;;;;;;16.38;12.30;;;15.80;15.40;;;;;;4973389;28;20412;-75
2022/04/24 09:28:44;;;;;;;16.55;11.38;;;15.90;15.90;;;;;;4979274;28;20404;-75
2022/04/24 09:31:10;;;;;;;18.53;12.90;;;15.90;14.60;;;;;;4974620;28;20532;-74
2022/04/24 09:33:43;;;;;;;15.45;11.30;;;15.80;15.00;;;;;;4984546;28;20499;-74
2022/04/24 09:36:10;;;;;;;14.63;12.15;;;15.90;15.20;;;;;;4990786;28;20472;-72
2022/04/24 09:38:44;;;;;;;17.80;12.27;;;15.90;15.20;;;;;;4990146;28;20869;-74
2022/04/24 09:41:20;;;;;;;17.13;11.52;;;16.00;15.00;;;;;;4981964;28;20421;-75
2022/04/24 09:43:46;;;;;;;19.58;12.60;;;15.90;14.40;;;;;;4992294;28;20470;-79
2022/04/24 09:46:12;;;;;;;14.32;11.93;;;16.00;14.80;;;;;;4993257;28;20408;-75
2022/04/24 09:48:38;;;;;;;17.27;12.38;;;16.20;14.90;;;;;;4972265;28;20438;-72
2022/04/24 09:51:03;;;;;;;13.38;11.00;;;16.30;14.20;;;;;;4972803;28;20468;-74
2022/04/24 09:53:31;;;;;;;18.23;12.80;;;16.40;13.50;;;;;;4975794;28;20419;-74
2022/04/24 09:55:58;;;;;;;17.00;12.17;;;16.20;14.40;;;;;;4989929;28;20407;-74
2022/04/24 09:58:25;;;;;;;16.07;11.30;;;16.30;14.20;;;;;;4975963;28;20412;-73
2022/04/24 10:00:51;;;;;;;16.65;12.55;;;16.40;13.70;;;;;;4972258;28;21006;-73
2022/04/24 10:03:18;;;;;;;17.45;12.50;;;16.40;13.70;;;;;;4975229;28;20460;-74
2022/04/24 10:05:47;;;;;;;14.93;11.82;;;16.40;13.20;;;;;;4976334;28;20421;-74
2022/04/24 10:08:18;;;;;;;14.23;11.70;;;16.40;13.90;;;;;;4969465;28;20424;-75
2022/04/24 10:10:44;;;;;;;14.27;12.02;;;16.60;14.00;;;;;;4974838;28;20430;-73
2022/04/24 10:13:14;;;;;;;16.40;11.70;;;16.80;13.30;;;;;;4971875;28;20408;-75
2022/04/24 10:15:49;;;;;;;15.32;12.13;;;16.80;13.00;;;;;;4983192;28;20463;-74
2022/04/24 10:18:39;;;;;;;17.00;12.10;;;16.90;12.60;;;;;;4995523;28;20426;-73
2022/04/24 10:21:39;;;;;;;16.52;13.40;;;17.00;12.90;;;;;;4986891;28;20396;-74
2022/04/24 10:24:11;;;;;;;18.15;12.77;;;17.10;13.10;;;;;;4989186;28;20416;-73
2022/04/24 10:26:38;;;;;;;17.97;12.53;;;17.20;11.70;;;;;;4978413;28;20459;-75
2022/04/24 10:29:10;;;;;;;15.68;11.18;;;17.20;12.80;;;;;;4974622;28;20431;-79
2022/04/24 10:31:43;;;;;;;14.98;12.15;;;17.40;12.50;;;;;;4980267;28;20400;-78
2022/04/24 10:34:11;;;;;;;15.00;12.05;;;17.60;11.70;;;;;;4978217;28;20822;-74
2022/04/24 10:36:37;;;;;;;15.38;11.60;;;17.70;12.00;;;;;;4976326;28;20904;-74
2022/04/24 10:39:15;;;;;;;16.85;12.90;;;17.80;11.20;;;;;;4976000;28;20412;-74
2022/04/24 10:41:40;;;;;;;17.23;13.00;;;17.90;10.90;;;;;;4975266;28;20416;-74
2022/04/24 10:44:15;;;;;;;14.27;11.87;;;17.90;10.40;;;;;;4976035;28;20883;-73
2022/04/24 10:46:42;;;;;;;15.23;12.85;;;18.00;10.80;;;;;;4988552;28;20454;-74
2022/04/24 10:49:08;;;;;;;20.60;12.73;;;17.90;11.20;;;;;;4972642;28;20414;-74
2022/04/24 10:51:36;;;;;;;18.27;12.50;;;17.80;10.10;;;;;;4971274;28;20415;-74
2022/04/24 10:54:25;;;;;;;14.75;11.63;;;17.70;11.50;;;;;;4974746;28;20418;-74
2022/04/24 10:56:51;;;;;;;18.75;12.90;;;17.50;10.60;;;;;;4973167;28;20499;-73
2022/04/24 10:59:19;;;;;;;15.65;12.27;;;17.50;11.40;;;;;;4977133;28;20898;-74
2022/04/24 11:01:51;;;;;;;17.45;12.93;;;17.60;11.60;;;;;;4981852;28;20452;-74
2022/04/24 11:04:18;;;;;;;17.60;12.07;;;17.80;10.50;;;;;;4973368;28;20423;-73
2022/04/24 11:06:59;;;;;;;14.93;12.18;;;17.90;10.50;;;;;;4970754;28;20400;-74
2022/04/24 11:09:31;;;;;;;16.73;11.65;;;18.10;10.20;;;;;;4979021;28;20543;-75
2022/04/24 11:12:01;;;;;;;15.05;11.60;;;18.20;11.00;;;;;;4983953;28;20396;-74
2022/04/24 11:14:28;;;;;;;13.45;11.70;;;18.40;8.80;;;;;;4976786;28;20429;-75
2022/04/24 11:16:58;;;;;;;15.60;12.10;;;18.50;10.20;;;;;;4973818;28;20462;-73
2022/04/24 11:19:26;;;;;;;16.88;11.55;;;18.60;9.00;;;;;;4969829;28;20423;-74
2022/04/24 11:21:59;;;;;;;16.40;11.73;;;18.20;8.50;;;;;;4981057;28;20931;-74
2022/04/24 11:24:27;;;;;;;14.02;10.35;;;18.10;9.20;;;;;;4978339;28;20448;-74
2022/04/24 11:26:53;;;;;;;13.33;11.00;;;18.10;8.70;;;;;;4975476;28;20404;-75
2022/04/24 11:29:20;;;;;;;15.52;11.95;;;18.10;9.20;;;;;;4982613;28;20418;-74
2022/04/24 11:31:53;;;;;;;14.40;11.02;;;18.20;8.60;;;;;;4973944;28;20746;-75
2022/04/24 11:34:20;;;;;;;13.70;11.40;;;18.30;9.10;;;;;;4976755;28;20481;-74
2022/04/24 11:36:48;;;;;;;16.40;11.45;;;18.60;9.40;;;;;;4979986;28;20432;-74
2022/04/24 11:39:14;;;;;;;13.77;11.00;;;18.60;8.10;;;;;;4972265;28;20939;-75
2022/04/24 11:41:42;;;;;;;12.45;10.52;;;18.60;8.80;;;;;;4973152;28;20785;-76
2022/04/24 11:52:43;;;;;;;11.57;9.07;;;19.10;7.20;;;;;;4968567;28;20787;-73
2022/04/24 11:55:11;;;;;;;16.55;11.95;;;19.40;6.20;;;;;;4971084;28;20458;-74
2022/04/24 11:57:37;;;;;;;13.82;10.48;;;19.30;6.30;;;;;;4970767;28;20412;-73
2022/04/24 12:00:06;;;;;;;13.13;10.50;;;19.20;7.30;;;;;;4972780;28;20399;-74
2022/04/24 12:02:32;;;;;;;11.23;10.10;;;19.20;7.20;;;;;;4974095;28;20494;-74
2022/04/24 12:04:58;;;;;;;13.85;10.38;;;19.20;7.70;;;;;;4970332;28;20499;-73
2022/04/24 12:07:33;;;;;;;12.53;10.30;;;19.30;6.60;;;;;;4968768;28;20413;-73
2022/04/24 12:10:09;;;;;;;15.30;11.27;;;19.40;7.30;;;;;;4978597;28;20410;-72
2022/04/24 12:12:47;;;;;;;15.37;11.60;;;19.50;7.60;;;;;;4975804;28;20522;-73
2022/04/24 12:15:20;;;;;;;15.10;10.80;;;19.30;6.20;;;;;;4984281;28;20409;-72
2022/04/24 12:17:51;;;;;;;13.57;10.30;;;19.20;7.00;;;;;;4967590;28;20447;-72
2022/04/24 12:20:18;;;;;;;13.98;9.85;;;19.20;6.20;;;;;;4972234;28;20436;-72
2022/04/24 12:22:44;;;;;;;11.90;10.40;;;19.10;7.00;;;;;;4969128;28;20412;-76
2022/04/24 12:25:12;;;;;;;11.95;9.30;;;19.30;5.90;;;;;;4972571;28;20420;-75
2022/04/24 12:27:38;;;;;;;17.20;9.63;;;19.50;5.20;;;;;;4966844;28;20773;-73
2022/04/24 12:30:07;;;;;;;12.77;9.20;;;19.60;6.30;;;;;;4969592;28;20424;-73
2022/04/24 12:32:35;;;;;;;10.00;9.00;;;19.70;5.70;;;;;;4971097;28;20407;-73
2022/04/24 12:35:00;;;;;;;13.50;9.15;;;19.90;5.10;;;;;;4965442;28;22130;-74
2022/04/24 12:37:31;;;;;;;10.38;8.77;;;20.20;4.70;;;;;;4972445;28;20400;-74
2022/04/24 12:39:57;;;;;;;9.23;7.85;;;20.50;5.10;;;;;;4972930;28;20412;-74
2022/04/24 12:42:25;;;;;;;9.55;8.13;;;20.60;3.00;;;;;;4966289;28;20844;-74